sensor_id;sensor_type;location;lat;lon;timestamp;temperature;humidity
39103;DHT22;24847;48.218;16.414;2023-04-03T00:04:32;5.30;99.90
39103;DHT22;24847;48.218;16.414;2023-04-03T00:09:54;5.20;99.90
39103;DHT22;24847;48.218;16.414;2023-04-03T00:15:18;5.20;99.90
39103;DHT22;24847;48.218;16.414;2023-04-03T00:20:41;5.20;99.90
39103;DHT22;24847;48.218;16.414;2023-04-03T00:26:06;5.10;99.90
39103;DHT22;24847;48.218;16.414;2023-04-03T00:31:30;5.10;99.90
39103;DHT22;24847;48.218;16.414;2023-04-03T00:36:52;5.10;99.90
39103;DHT22;24847;48.218;16.414;2023-04-03T00:42:16;5.20;99.90
39103;DHT22;24847;48.218;16.414;2023-04-03T00:47:42;5.20;99.90
39103;DHT22;24847;48.218;16.414;2023-04-03T00:53:06;5.20;99.90
39103;DHT22;24847;48.218;16.414;2023-04-03T00:58:34;5.10;99.90
39103;DHT22;24847;48.218;16.414;2023-04-03T01:04:04;5.20;99.90
39103;DHT22;24847;48.218;16.414;2023-04-03T01:09:28;5.20;99.90
39103;DHT22;24847;48.218;16.414;2023-04-03T01:14:53;5.10;99.90
39103;DHT22;24847;48.218;16.414;2023-04-03T01:20:46;5.10;99.90
39103;DHT22;24847;48.218;16.414;2023-04-03T01:26:20;5.20;99.90
39103;DHT22;24847;48.218;16.414;2023-04-03T01:31:49;5.20;99.90
39103;DHT22;24847;48.218;16.414;2023-04-03T01:37:13;5.00;99.90
39103;DHT22;24847;48.218;16.414;2023-04-03T01:42:35;5.00;99.90
39103;DHT22;24847;48.218;16.414;2023-04-03T01:47:59;5.10;99.90
39103;DHT22;24847;48.218;16.414;2023-04-03T01:53:22;5.00;99.90
39103;DHT22;24847;48.218;16.414;2023-04-03T01:58:44;4.90;99.90
39103;DHT22;24847;48.218;16.414;2023-04-03T02:04:08;4.90;99.90
39103;DHT22;24847;48.218;16.414;2023-04-03T02:09:31;5.10;99.90
39103;DHT22;24847;48.218;16.414;2023-04-03T02:14:53;4.80;99.90
39103;DHT22;24847;48.218;16.414;2023-04-03T02:20:18;4.80;99.90
39103;DHT22;24847;48.218;16.414;2023-04-03T02:25:41;4.90;99.90
39103;DHT22;24847;48.218;16.414;2023-04-03T02:31:04;4.80;99.90
39103;DHT22;24847;48.218;16.414;2023-04-03T02:36:28;4.70;99.90
39103;DHT22;24847;48.218;16.414;2023-04-03T02:41:51;4.80;99.90
39103;DHT22;24847;48.218;16.414;2023-04-03T02:47:13;4.90;99.90
39103;DHT22;24847;48.218;16.414;2023-04-03T02:52:38;4.90;99.90
39103;DHT22;24847;48.218;16.414;2023-04-03T02:58:00;4.80;99.90
39103;DHT22;24847;48.218;16.414;2023-04-03T03:03:22;4.80;99.90
39103;DHT22;24847;48.218;16.414;2023-04-03T03:08:46;4.80;99.90
39103;DHT22;24847;48.218;16.414;2023-04-03T03:14:09;4.70;99.90
39103;DHT22;24847;48.218;16.414;2023-04-03T03:19:32;4.70;99.90
39103;DHT22;24847;48.218;16.414;2023-04-03T03:24:56;4.90;99.90
39103;DHT22;24847;48.218;16.414;2023-04-03T03:30:25;4.70;99.90
39103;DHT22;24847;48.218;16.414;2023-04-03T03:35:55;4.70;99.90
39103;DHT22;24847;48.218;16.414;2023-04-03T03:41:20;4.90;99.90
39103;DHT22;24847;48.218;16.414;2023-04-03T03:46:47;4.70;99.90
39103;DHT22;24847;48.218;16.414;2023-04-03T03:52:13;4.80;99.90
39103;DHT22;24847;48.218;16.414;2023-04-03T03:57:41;4.60;99.90
39103;DHT22;24847;48.218;16.414;2023-04-03T04:03:05;4.70;99.90
39103;DHT22;24847;48.218;16.414;2023-04-03T04:08:28;4.80;99.90
39103;DHT22;24847;48.218;16.414;2023-04-03T04:13:54;4.90;99.90
39103;DHT22;24847;48.218;16.414;2023-04-03T04:19:17;4.80;99.90
39103;DHT22;24847;48.218;16.414;2023-04-03T04:24:44;4.80;99.90
39103;DHT22;24847;48.218;16.414;2023-04-03T04:30:12;4.70;99.90
39103;DHT22;24847;48.218;16.414;2023-04-03T04:35:38;4.60;99.90
39103;DHT22;24847;48.218;16.414;2023-04-03T04:41:05;4.60;99.90
39103;DHT22;24847;48.218;16.414;2023-04-03T04:46:29;4.70;99.90
39103;DHT22;24847;48.218;16.414;2023-04-03T04:51:51;4.50;99.90
39103;DHT22;24847;48.218;16.414;2023-04-03T04:57:14;4.50;99.90
39103;DHT22;24847;48.218;16.414;2023-04-03T05:02:38;4.60;99.90
39103;DHT22;24847;48.218;16.414;2023-04-03T05:08:00;4.50;99.90
39103;DHT22;24847;48.218;16.414;2023-04-03T05:13:23;4.40;99.90
39103;DHT22;24847;48.218;16.414;2023-04-03T05:18:47;4.60;99.90
39103;DHT22;24847;48.218;16.414;2023-04-03T05:24:09;4.40;99.90
39103;DHT22;24847;48.218;16.414;2023-04-03T05:29:32;4.50;99.90
39103;DHT22;24847;48.218;16.414;2023-04-03T05:34:56;4.40;99.90
39103;DHT22;24847;48.218;16.414;2023-04-03T05:40:19;4.70;99.90
39103;DHT22;24847;48.218;16.414;2023-04-03T05:45:42;4.80;99.90
39103;DHT22;24847;48.218;16.414;2023-04-03T05:51:07;4.60;99.90
39103;DHT22;24847;48.218;16.414;2023-04-03T05:56:31;4.40;99.90
39103;DHT22;24847;48.218;16.414;2023-04-03T06:01:54;4.80;99.90
39103;DHT22;24847;48.218;16.414;2023-04-03T06:07:24;4.50;99.90
39103;DHT22;24847;48.218;16.414;2023-04-03T06:12:49;4.30;99.90
39103;DHT22;24847;48.218;16.414;2023-04-03T06:18:12;4.40;99.90
39103;DHT22;24847;48.218;16.414;2023-04-03T06:23:36;4.40;99.90
39103;DHT22;24847;48.218;16.414;2023-04-03T06:28:58;4.60;99.90
39103;DHT22;24847;48.218;16.414;2023-04-03T06:34:21;4.50;99.90
39103;DHT22;24847;48.218;16.414;2023-04-03T06:39:45;4.30;99.90
39103;DHT22;24847;48.218;16.414;2023-04-03T06:45:08;4.50;99.90
39103;DHT22;24847;48.218;16.414;2023-04-03T06:50:32;4.60;99.90
39103;DHT22;24847;48.218;16.414;2023-04-03T06:55:56;4.50;99.90
39103;DHT22;24847;48.218;16.414;2023-04-03T07:01:19;4.60;99.90
39103;DHT22;24847;48.218;16.414;2023-04-03T07:06:41;4.30;99.90
39103;DHT22;24847;48.218;16.414;2023-04-03T07:12:06;4.20;99.90
39103;DHT22;24847;48.218;16.414;2023-04-03T07:17:28;4.30;99.90
39103;DHT22;24847;48.218;16.414;2023-04-03T07:22:51;4.60;99.90
39103;DHT22;24847;48.218;16.414;2023-04-03T07:28:15;4.50;99.90
39103;DHT22;24847;48.218;16.414;2023-04-03T07:33:39;4.70;99.90
39103;DHT22;24847;48.218;16.414;2023-04-03T07:39:02;5.10;99.90
39103;DHT22;24847;48.218;16.414;2023-04-03T07:44:26;5.10;99.90
39103;DHT22;24847;48.218;16.414;2023-04-03T07:49:49;6.00;99.90
39103;DHT22;24847;48.218;16.414;2023-04-03T07:55:11;6.80;99.90
39103;DHT22;24847;48.218;16.414;2023-04-03T08:00:35;6.50;99.90
39103;DHT22;24847;48.218;16.414;2023-04-03T08:06:02;5.90;99.90
39103;DHT22;24847;48.218;16.414;2023-04-03T08:11:25;6.40;99.90
39103;DHT22;24847;48.218;16.414;2023-04-03T08:16:49;6.50;99.90
39103;DHT22;24847;48.218;16.414;2023-04-03T08:22:12;7.20;99.90
39103;DHT22;24847;48.218;16.414;2023-04-03T08:27:35;8.60;99.90
39103;DHT22;24847;48.218;16.414;2023-04-03T08:33:00;7.90;99.90
39103;DHT22;24847;48.218;16.414;2023-04-03T08:38:22;7.20;99.90
39103;DHT22;24847;48.218;16.414;2023-04-03T08:43:57;7.80;99.90
39103;DHT22;24847;48.218;16.414;2023-04-03T08:49:30;7.70;99.90
39103;DHT22;24847;48.218;16.414;2023-04-03T08:54:55;7.90;99.90
39103;DHT22;24847;48.218;16.414;2023-04-03T09:00:22;7.10;99.90
39103;DHT22;24847;48.218;16.414;2023-04-03T09:05:53;6.40;99.90
39103;DHT22;24847;48.218;16.414;2023-04-03T09:11:21;6.90;99.90
39103;DHT22;24847;48.218;16.414;2023-04-03T09:16:51;6.10;99.90
39103;DHT22;24847;48.218;16.414;2023-04-03T09:22:21;5.90;99.90
39103;DHT22;24847;48.218;16.414;2023-04-03T09:27:45;6.70;99.90
39103;DHT22;24847;48.218;16.414;2023-04-03T09:33:09;6.00;99.90
39103;DHT22;24847;48.218;16.414;2023-04-03T09:38:33;5.90;99.90
39103;DHT22;24847;48.218;16.414;2023-04-03T09:43:56;6.00;99.90
39103;DHT22;24847;48.218;16.414;2023-04-03T09:49:19;6.10;99.90
39103;DHT22;24847;48.218;16.414;2023-04-03T09:54:43;5.70;99.90
39103;DHT22;24847;48.218;16.414;2023-04-03T10:00:10;5.60;99.90
39103;DHT22;24847;48.218;16.414;2023-04-03T10:05:42;5.50;99.90
39103;DHT22;24847;48.218;16.414;2023-04-03T10:11:10;5.40;99.90
39103;DHT22;24847;48.218;16.414;2023-04-03T10:16:36;5.60;99.90
39103;DHT22;24847;48.218;16.414;2023-04-03T10:22:05;5.70;99.90
39103;DHT22;24847;48.218;16.414;2023-04-03T10:27:44;5.80;99.90
39103;DHT22;24847;48.218;16.414;2023-04-03T10:33:33;5.60;99.90
39103;DHT22;24847;48.218;16.414;2023-04-03T10:39:08;5.90;99.90
39103;DHT22;24847;48.218;16.414;2023-04-03T10:44:49;5.80;99.90
39103;DHT22;24847;48.218;16.414;2023-04-03T10:50:27;5.80;99.90
39103;DHT22;24847;48.218;16.414;2023-04-03T10:55:58;6.50;99.90
39103;DHT22;24847;48.218;16.414;2023-04-03T11:01:30;6.00;99.90
39103;DHT22;24847;48.218;16.414;2023-04-03T11:07:01;5.90;99.90
39103;DHT22;24847;48.218;16.414;2023-04-03T11:12:33;5.60;99.90
39103;DHT22;24847;48.218;16.414;2023-04-03T11:18:04;5.60;99.90
39103;DHT22;24847;48.218;16.414;2023-04-03T11:23:33;5.30;99.90
39103;DHT22;24847;48.218;16.414;2023-04-03T11:29:01;5.50;99.90
39103;DHT22;24847;48.218;16.414;2023-04-03T11:34:33;5.50;99.90
39103;DHT22;24847;48.218;16.414;2023-04-03T11:40:01;5.70;99.90
39103;DHT22;24847;48.218;16.414;2023-04-03T11:45:33;5.50;99.90
39103;DHT22;24847;48.218;16.414;2023-04-03T11:51:00;5.60;99.90
39103;DHT22;24847;48.218;16.414;2023-04-03T11:56:30;6.80;96.80
39103;DHT22;24847;48.218;16.414;2023-04-03T12:01:54;5.60;98.90
39103;DHT22;24847;48.218;16.414;2023-04-03T12:07:19;5.40;98.10
39103;DHT22;24847;48.218;16.414;2023-04-03T12:12:41;5.60;99.20
39103;DHT22;24847;48.218;16.414;2023-04-03T12:24:28;5.60;99.30
39103;DHT22;24847;48.218;16.414;2023-04-03T12:29:55;5.80;98.00
39103;DHT22;24847;48.218;16.414;2023-04-03T12:35:24;5.70;97.80
39103;DHT22;24847;48.218;16.414;2023-04-03T12:41:00;5.60;99.00
39103;DHT22;24847;48.218;16.414;2023-04-03T12:46:38;5.20;98.50
39103;DHT22;24847;48.218;16.414;2023-04-03T12:52:04;5.40;97.60
39103;DHT22;24847;48.218;16.414;2023-04-03T12:57:38;5.60;97.40
39103;DHT22;24847;48.218;16.414;2023-04-03T13:03:02;5.90;97.30
39103;DHT22;24847;48.218;16.414;2023-04-03T13:08:27;5.60;97.70
39103;DHT22;24847;48.218;16.414;2023-04-03T13:13:57;5.70;97.90
39103;DHT22;24847;48.218;16.414;2023-04-03T13:19:25;5.40;96.90
39103;DHT22;24847;48.218;16.414;2023-04-03T13:24:50;6.10;97.60
39103;DHT22;24847;48.218;16.414;2023-04-03T13:30:24;5.80;97.10
39103;DHT22;24847;48.218;16.414;2023-04-03T13:35:56;5.50;96.80
39103;DHT22;24847;48.218;16.414;2023-04-03T13:41:25;5.30;96.80
39103;DHT22;24847;48.218;16.414;2023-04-03T13:46:50;5.70;97.60
39103;DHT22;24847;48.218;16.414;2023-04-03T13:52:24;5.20;96.80
39103;DHT22;24847;48.218;16.414;2023-04-03T13:57:52;5.30;97.30
39103;DHT22;24847;48.218;16.414;2023-04-03T14:03:21;5.40;96.10
39103;DHT22;24847;48.218;16.414;2023-04-03T14:08:46;5.60;96.00
39103;DHT22;24847;48.218;16.414;2023-04-03T14:14:14;5.50;96.60
39103;DHT22;24847;48.218;16.414;2023-04-03T14:19:40;5.60;97.40
39103;DHT22;24847;48.218;16.414;2023-04-03T14:25:03;5.60;96.00
39103;DHT22;24847;48.218;16.414;2023-04-03T14:30:28;5.90;96.50
39103;DHT22;24847;48.218;16.414;2023-04-03T14:35:53;6.20;97.00
39103;DHT22;24847;48.218;16.414;2023-04-03T14:41:18;5.90;96.80
39103;DHT22;24847;48.218;16.414;2023-04-03T14:46:43;5.60;96.70
39103;DHT22;24847;48.218;16.414;2023-04-03T14:52:16;5.50;96.30
39103;DHT22;24847;48.218;16.414;2023-04-03T14:57:41;5.60;95.50
39103;DHT22;24847;48.218;16.414;2023-04-03T15:03:03;5.80;96.80
39103;DHT22;24847;48.218;16.414;2023-04-03T15:08:28;5.40;95.90
39103;DHT22;24847;48.218;16.414;2023-04-03T15:13:51;5.60;95.60
39103;DHT22;24847;48.218;16.414;2023-04-03T15:19:13;5.30;95.90
39103;DHT22;24847;48.218;16.414;2023-04-03T15:24:37;5.50;95.50
39103;DHT22;24847;48.218;16.414;2023-04-03T15:30:00;5.50;95.50
39103;DHT22;24847;48.218;16.414;2023-04-03T15:35:23;5.50;96.00
39103;DHT22;24847;48.218;16.414;2023-04-03T15:40:47;5.30;96.20
39103;DHT22;24847;48.218;16.414;2023-04-03T15:46:09;5.10;96.10
39103;DHT22;24847;48.218;16.414;2023-04-03T15:51:32;5.00;96.20
39103;DHT22;24847;48.218;16.414;2023-04-03T15:56:56;5.30;96.30
39103;DHT22;24847;48.218;16.414;2023-04-03T16:02:19;5.40;96.40
39103;DHT22;24847;48.218;16.414;2023-04-03T16:07:44;5.10;95.90
39103;DHT22;24847;48.218;16.414;2023-04-03T16:13:08;4.90;96.60
39103;DHT22;24847;48.218;16.414;2023-04-03T16:18:31;4.80;95.20
39103;DHT22;24847;48.218;16.414;2023-04-03T16:23:56;5.00;94.90
39103;DHT22;24847;48.218;16.414;2023-04-03T16:29:20;5.00;94.50
39103;DHT22;24847;48.218;16.414;2023-04-03T16:34:43;4.80;95.50
39103;DHT22;24847;48.218;16.414;2023-04-03T16:40:07;4.80;95.80
39103;DHT22;24847;48.218;16.414;2023-04-03T16:45:34;4.60;95.80
39103;DHT22;24847;48.218;16.414;2023-04-03T16:50:57;4.80;96.20
39103;DHT22;24847;48.218;16.414;2023-04-03T16:56:20;4.60;96.30
39103;DHT22;24847;48.218;16.414;2023-04-03T17:01:44;4.60;96.20
39103;DHT22;24847;48.218;16.414;2023-04-03T17:07:07;4.60;97.20
39103;DHT22;24847;48.218;16.414;2023-04-03T17:12:30;4.60;96.10
39103;DHT22;24847;48.218;16.414;2023-04-03T17:17:57;4.60;96.50
39103;DHT22;24847;48.218;16.414;2023-04-03T17:23:20;4.50;96.50
39103;DHT22;24847;48.218;16.414;2023-04-03T17:28:43;4.50;97.20
39103;DHT22;24847;48.218;16.414;2023-04-03T17:34:07;4.50;97.00
39103;DHT22;24847;48.218;16.414;2023-04-03T17:39:32;4.40;96.70
39103;DHT22;24847;48.218;16.414;2023-04-03T17:44:55;4.30;96.40
39103;DHT22;24847;48.218;16.414;2023-04-03T17:50:20;4.30;96.20
39103;DHT22;24847;48.218;16.414;2023-04-03T17:55:43;4.20;96.90
39103;DHT22;24847;48.218;16.414;2023-04-03T18:01:10;4.20;97.00
39103;DHT22;24847;48.218;16.414;2023-04-03T18:06:39;4.10;97.30
39103;DHT22;24847;48.218;16.414;2023-04-03T18:12:06;4.10;97.70
39103;DHT22;24847;48.218;16.414;2023-04-03T18:17:30;4.10;97.10
39103;DHT22;24847;48.218;16.414;2023-04-03T18:22:54;4.30;96.80
39103;DHT22;24847;48.218;16.414;2023-04-03T18:28:18;4.30;96.80
39103;DHT22;24847;48.218;16.414;2023-04-03T18:33:42;4.30;97.10
39103;DHT22;24847;48.218;16.414;2023-04-03T18:39:07;4.20;97.80
39103;DHT22;24847;48.218;16.414;2023-04-03T18:44:32;4.10;97.50
39103;DHT22;24847;48.218;16.414;2023-04-03T18:49:57;3.80;97.30
39103;DHT22;24847;48.218;16.414;2023-04-03T18:55:23;4.00;97.80
39103;DHT22;24847;48.218;16.414;2023-04-03T19:00:47;3.90;97.80
39103;DHT22;24847;48.218;16.414;2023-04-03T19:06:11;3.90;98.10
39103;DHT22;24847;48.218;16.414;2023-04-03T19:11:37;3.80;98.40
39103;DHT22;24847;48.218;16.414;2023-04-03T19:17:01;3.80;98.40
39103;DHT22;24847;48.218;16.414;2023-04-03T19:22:27;3.80;98.50
39103;DHT22;24847;48.218;16.414;2023-04-03T19:27:52;3.70;98.10
39103;DHT22;24847;48.218;16.414;2023-04-03T19:33:17;3.70;98.80
39103;DHT22;24847;48.218;16.414;2023-04-03T19:38:41;3.70;98.00
39103;DHT22;24847;48.218;16.414;2023-04-03T19:44:07;4.00;97.70
39103;DHT22;24847;48.218;16.414;2023-04-03T19:49:31;3.80;97.80
39103;DHT22;24847;48.218;16.414;2023-04-03T19:54:54;3.70;97.90
39103;DHT22;24847;48.218;16.414;2023-04-03T20:00:19;3.60;98.30
39103;DHT22;24847;48.218;16.414;2023-04-03T20:05:44;3.70;97.90
39103;DHT22;24847;48.218;16.414;2023-04-03T20:11:08;3.60;98.40
39103;DHT22;24847;48.218;16.414;2023-04-03T20:16:33;3.60;97.60
39103;DHT22;24847;48.218;16.414;2023-04-03T20:22:08;3.50;97.60
39103;DHT22;24847;48.218;16.414;2023-04-03T20:27:31;3.60;98.00
39103;DHT22;24847;48.218;16.414;2023-04-03T20:32:56;3.70;98.00
39103;DHT22;24847;48.218;16.414;2023-04-03T20:38:19;3.70;98.10
39103;DHT22;24847;48.218;16.414;2023-04-03T20:43:42;3.60;98.40
39103;DHT22;24847;48.218;16.414;2023-04-03T20:49:07;3.60;98.10
39103;DHT22;24847;48.218;16.414;2023-04-03T20:54:30;3.70;98.50
39103;DHT22;24847;48.218;16.414;2023-04-03T20:59:53;3.30;98.10
39103;DHT22;24847;48.218;16.414;2023-04-03T21:05:17;3.60;98.20
39103;DHT22;24847;48.218;16.414;2023-04-03T21:22:25;3.50;97.90
39103;DHT22;24847;48.218;16.414;2023-04-03T21:27:48;3.50;98.40
39103;DHT22;24847;48.218;16.414;2023-04-03T21:33:11;3.40;98.20
39103;DHT22;24847;48.218;16.414;2023-04-03T21:38:35;3.30;98.60
39103;DHT22;24847;48.218;16.414;2023-04-03T21:43:58;3.30;99.10
39103;DHT22;24847;48.218;16.414;2023-04-03T21:49:20;3.20;99.00
39103;DHT22;24847;48.218;16.414;2023-04-03T21:54:45;3.30;99.50
39103;DHT22;24847;48.218;16.414;2023-04-03T22:00:08;3.20;99.10
39103;DHT22;24847;48.218;16.414;2023-04-03T22:05:31;3.10;99.00
39103;DHT22;24847;48.218;16.414;2023-04-03T22:11:00;2.90;99.40
39103;DHT22;24847;48.218;16.414;2023-04-03T22:16:23;2.80;98.30
39103;DHT22;24847;48.218;16.414;2023-04-03T22:21:46;2.90;98.60
39103;DHT22;24847;48.218;16.414;2023-04-03T22:27:10;2.90;98.00
39103;DHT22;24847;48.218;16.414;2023-04-03T22:32:33;2.70;97.70
39103;DHT22;24847;48.218;16.414;2023-04-03T22:37:56;2.80;97.40
39103;DHT22;24847;48.218;16.414;2023-04-03T22:43:21;2.70;97.50
39103;DHT22;24847;48.218;16.414;2023-04-03T22:48:43;2.70;98.20
39103;DHT22;24847;48.218;16.414;2023-04-03T22:54:06;2.40;99.20
39103;DHT22;24847;48.218;16.414;2023-04-03T22:59:30;2.40;99.60
39103;DHT22;24847;48.218;16.414;2023-04-03T23:04:52;2.20;99.90
39103;DHT22;24847;48.218;16.414;2023-04-03T23:10:15;2.30;99.90
39103;DHT22;24847;48.218;16.414;2023-04-03T23:15:39;2.40;99.90
39103;DHT22;24847;48.218;16.414;2023-04-03T23:21:01;2.30;99.90
39103;DHT22;24847;48.218;16.414;2023-04-03T23:26:24;2.20;99.90
39103;DHT22;24847;48.218;16.414;2023-04-03T23:31:48;2.30;99.90
39103;DHT22;24847;48.218;16.414;2023-04-03T23:37:11;2.10;99.90
39103;DHT22;24847;48.218;16.414;2023-04-03T23:42:33;2.10;99.90
39103;DHT22;24847;48.218;16.414;2023-04-03T23:48:00;2.10;99.90
39103;DHT22;24847;48.218;16.414;2023-04-03T23:53:27;1.90;99.90
39103;DHT22;24847;48.218;16.414;2023-04-03T23:58:50;1.90;99.90
